sensor_id;sensor_type;location;lat;lon;timestamp;temperature;humidity
4520;DHT22;2272;49.226;8.108;2023-06-26T00:02:15;20.10;82.20
4520;DHT22;2272;49.226;8.108;2023-06-26T00:04:42;20.10;82.10
4520;DHT22;2272;49.226;8.108;2023-06-26T00:07:09;20.10;82.10
4520;DHT22;2272;49.226;8.108;2023-06-26T00:09:37;20.10;82.20
4520;DHT22;2272;49.226;8.108;2023-06-26T00:12:05;20.10;82.50
4520;DHT22;2272;49.226;8.108;2023-06-26T00:14:32;20.10;82.80
4520;DHT22;2272;49.226;8.108;2023-06-26T00:16:58;20.00;82.90
4520;DHT22;2272;49.226;8.108;2023-06-26T00:19:25;20.00;83.10
4520;DHT22;2272;49.226;8.108;2023-06-26T00:21:51;20.00;83.50
4520;DHT22;2272;49.226;8.108;2023-06-26T00:24:18;19.90;83.90
4520;DHT22;2272;49.226;8.108;2023-06-26T00:26:47;19.90;84.00
4520;DHT22;2272;49.226;8.108;2023-06-26T00:29:15;19.80;84.20
4520;DHT22;2272;49.226;8.108;2023-06-26T00:31:41;19.70;84.50
4520;DHT22;2272;49.226;8.108;2023-06-26T00:34:08;19.70;85.00
4520;DHT22;2272;49.226;8.108;2023-06-26T00:36:35;19.60;85.40
4520;DHT22;2272;49.226;8.108;2023-06-26T00:39:01;19.60;85.60
4520;DHT22;2272;49.226;8.108;2023-06-26T00:41:28;19.60;85.90
4520;DHT22;2272;49.226;8.108;2023-06-26T00:43:56;19.50;86.20
4520;DHT22;2272;49.226;8.108;2023-06-26T00:46:23;19.60;86.70
4520;DHT22;2272;49.226;8.108;2023-06-26T00:48:51;19.50;87.00
4520;DHT22;2272;49.226;8.108;2023-06-26T00:51:18;19.50;87.00
4520;DHT22;2272;49.226;8.108;2023-06-26T00:53:45;19.50;87.30
4520;DHT22;2272;49.226;8.108;2023-06-26T00:56:12;19.50;87.40
4520;DHT22;2272;49.226;8.108;2023-06-26T00:58:38;19.60;87.90
4520;DHT22;2272;49.226;8.108;2023-06-26T01:01:11;19.50;88.90
4520;DHT22;2272;49.226;8.108;2023-06-26T01:03:41;19.50;88.20
4520;DHT22;2272;49.226;8.108;2023-06-26T01:06:09;19.40;88.50
4520;DHT22;2272;49.226;8.108;2023-06-26T01:08:37;19.40;89.00
4520;DHT22;2272;49.226;8.108;2023-06-26T01:11:04;19.30;89.20
4520;DHT22;2272;49.226;8.108;2023-06-26T01:13:31;19.20;89.50
4520;DHT22;2272;49.226;8.108;2023-06-26T01:15:59;19.10;90.00
4520;DHT22;2272;49.226;8.108;2023-06-26T01:18:28;19.00;90.20
4520;DHT22;2272;49.226;8.108;2023-06-26T01:20:56;19.00;90.40
4520;DHT22;2272;49.226;8.108;2023-06-26T01:23:30;18.90;90.50
4520;DHT22;2272;49.226;8.108;2023-06-26T01:26:11;18.90;90.60
4520;DHT22;2272;49.226;8.108;2023-06-26T01:28:41;18.90;90.70
4520;DHT22;2272;49.226;8.108;2023-06-26T01:31:10;19.00;90.80
4520;DHT22;2272;49.226;8.108;2023-06-26T01:33:37;19.00;90.80
4520;DHT22;2272;49.226;8.108;2023-06-26T01:36:05;19.10;90.80
4520;DHT22;2272;49.226;8.108;2023-06-26T01:38:32;19.10;90.80
4520;DHT22;2272;49.226;8.108;2023-06-26T01:41:00;19.20;90.90
4520;DHT22;2272;49.226;8.108;2023-06-26T01:43:34;19.20;91.00
4520;DHT22;2272;49.226;8.108;2023-06-26T01:46:06;19.20;91.10
4520;DHT22;2272;49.226;8.108;2023-06-26T01:48:40;19.20;91.30
4520;DHT22;2272;49.226;8.108;2023-06-26T01:51:10;19.00;91.40
4520;DHT22;2272;49.226;8.108;2023-06-26T01:53:41;18.90;91.60
4520;DHT22;2272;49.226;8.108;2023-06-26T01:56:13;18.80;91.80
4520;DHT22;2272;49.226;8.108;2023-06-26T01:58:45;18.70;92.00
4520;DHT22;2272;49.226;8.108;2023-06-26T02:01:12;18.60;92.20
4520;DHT22;2272;49.226;8.108;2023-06-26T02:03:39;18.60;92.30
4520;DHT22;2272;49.226;8.108;2023-06-26T02:06:06;18.60;92.30
4520;DHT22;2272;49.226;8.108;2023-06-26T02:08:32;18.60;92.40
4520;DHT22;2272;49.226;8.108;2023-06-26T02:10:59;18.60;92.60
4520;DHT22;2272;49.226;8.108;2023-06-26T02:13:26;18.50;92.70
4520;DHT22;2272;49.226;8.108;2023-06-26T02:15:54;18.60;92.80
4520;DHT22;2272;49.226;8.108;2023-06-26T02:18:20;18.60;92.80
4520;DHT22;2272;49.226;8.108;2023-06-26T02:20:47;18.60;92.90
4520;DHT22;2272;49.226;8.108;2023-06-26T02:23:14;18.60;93.00
4520;DHT22;2272;49.226;8.108;2023-06-26T02:25:41;18.50;93.10
4520;DHT22;2272;49.226;8.108;2023-06-26T02:28:07;18.50;93.40
4520;DHT22;2272;49.226;8.108;2023-06-26T02:30:34;18.40;93.50
4520;DHT22;2272;49.226;8.108;2023-06-26T02:33:02;18.30;93.70
4520;DHT22;2272;49.226;8.108;2023-06-26T02:35:29;18.30;93.90
4520;DHT22;2272;49.226;8.108;2023-06-26T02:37:56;18.20;94.10
4520;DHT22;2272;49.226;8.108;2023-06-26T02:40:22;18.10;94.20
4520;DHT22;2272;49.226;8.108;2023-06-26T02:42:49;18.00;94.40
4520;DHT22;2272;49.226;8.108;2023-06-26T02:45:16;17.90;94.50
4520;DHT22;2272;49.226;8.108;2023-06-26T02:47:42;17.90;94.60
4520;DHT22;2272;49.226;8.108;2023-06-26T02:50:10;17.80;94.80
4520;DHT22;2272;49.226;8.108;2023-06-26T02:52:37;17.70;95.00
4520;DHT22;2272;49.226;8.108;2023-06-26T02:55:05;17.60;95.20
4520;DHT22;2272;49.226;8.108;2023-06-26T02:57:32;17.60;95.30
4520;DHT22;2272;49.226;8.108;2023-06-26T02:59:58;17.50;95.40
4520;DHT22;2272;49.226;8.108;2023-06-26T03:02:25;17.50;95.60
4520;DHT22;2272;49.226;8.108;2023-06-26T03:04:52;17.40;95.80
4520;DHT22;2272;49.226;8.108;2023-06-26T03:07:20;17.30;96.00
4520;DHT22;2272;49.226;8.108;2023-06-26T03:09:46;17.30;96.30
4520;DHT22;2272;49.226;8.108;2023-06-26T03:12:14;17.20;96.60
4520;DHT22;2272;49.226;8.108;2023-06-26T03:14:40;17.10;96.80
4520;DHT22;2272;49.226;8.108;2023-06-26T03:17:07;17.10;97.10
4520;DHT22;2272;49.226;8.108;2023-06-26T03:19:33;17.00;97.30
4520;DHT22;2272;49.226;8.108;2023-06-26T03:22:00;17.00;97.70
4520;DHT22;2272;49.226;8.108;2023-06-26T03:24:28;16.90;97.90
4520;DHT22;2272;49.226;8.108;2023-06-26T03:26:55;16.80;98.10
4520;DHT22;2272;49.226;8.108;2023-06-26T03:29:22;16.80;98.50
4520;DHT22;2272;49.226;8.108;2023-06-26T03:31:48;16.80;98.80
4520;DHT22;2272;49.226;8.108;2023-06-26T03:34:15;16.80;99.10
4520;DHT22;2272;49.226;8.108;2023-06-26T03:36:42;16.80;99.30
4520;DHT22;2272;49.226;8.108;2023-06-26T03:39:09;16.90;99.40
4520;DHT22;2272;49.226;8.108;2023-06-26T03:41:37;16.90;99.50
4520;DHT22;2272;49.226;8.108;2023-06-26T03:44:03;16.90;99.50
4520;DHT22;2272;49.226;8.108;2023-06-26T03:46:30;16.90;99.60
4520;DHT22;2272;49.226;8.108;2023-06-26T03:48:57;17.00;99.70
4520;DHT22;2272;49.226;8.108;2023-06-26T03:51:24;17.10;99.80
4520;DHT22;2272;49.226;8.108;2023-06-26T03:53:50;17.10;99.80
4520;DHT22;2272;49.226;8.108;2023-06-26T03:56:17;17.10;99.80
4520;DHT22;2272;49.226;8.108;2023-06-26T03:58:45;17.20;99.80
4520;DHT22;2272;49.226;8.108;2023-06-26T04:01:12;17.30;99.70
4520;DHT22;2272;49.226;8.108;2023-06-26T04:03:38;17.40;99.70
4520;DHT22;2272;49.226;8.108;2023-06-26T04:06:05;17.50;99.70
4520;DHT22;2272;49.226;8.108;2023-06-26T04:08:32;17.50;99.60
4520;DHT22;2272;49.226;8.108;2023-06-26T04:10:59;17.50;99.60
4520;DHT22;2272;49.226;8.108;2023-06-26T04:13:25;17.60;99.70
4520;DHT22;2272;49.226;8.108;2023-06-26T04:15:53;17.60;99.70
4520;DHT22;2272;49.226;8.108;2023-06-26T04:18:20;17.70;99.70
4520;DHT22;2272;49.226;8.108;2023-06-26T04:21:05;17.70;99.60
4520;DHT22;2272;49.226;8.108;2023-06-26T04:23:33;17.80;99.50
4520;DHT22;2272;49.226;8.108;2023-06-26T04:26:00;18.00;99.40
4520;DHT22;2272;49.226;8.108;2023-06-26T04:28:28;18.00;99.30
4520;DHT22;2272;49.226;8.108;2023-06-26T04:30:56;18.20;99.30
4520;DHT22;2272;49.226;8.108;2023-06-26T04:33:22;18.30;99.10
4520;DHT22;2272;49.226;8.108;2023-06-26T04:35:49;18.40;99.00
4520;DHT22;2272;49.226;8.108;2023-06-26T04:38:16;18.40;98.90
4520;DHT22;2272;49.226;8.108;2023-06-26T04:40:43;18.50;99.10
4520;DHT22;2272;49.226;8.108;2023-06-26T04:43:10;18.60;99.00
4520;DHT22;2272;49.226;8.108;2023-06-26T04:45:37;18.70;98.80
4520;DHT22;2272;49.226;8.108;2023-06-26T04:48:05;18.90;98.50
4520;DHT22;2272;49.226;8.108;2023-06-26T04:50:32;19.10;98.20
4520;DHT22;2272;49.226;8.108;2023-06-26T04:52:59;19.30;97.90
4520;DHT22;2272;49.226;8.108;2023-06-26T04:55:26;19.50;97.60
4520;DHT22;2272;49.226;8.108;2023-06-26T04:57:53;19.70;97.20
4520;DHT22;2272;49.226;8.108;2023-06-26T05:00:20;19.90;97.10
4520;DHT22;2272;49.226;8.108;2023-06-26T05:02:48;20.10;97.00
4520;DHT22;2272;49.226;8.108;2023-06-26T05:05:16;20.20;96.90
4520;DHT22;2272;49.226;8.108;2023-06-26T05:07:42;20.30;96.70
4520;DHT22;2272;49.226;8.108;2023-06-26T05:10:10;20.30;96.50
4520;DHT22;2272;49.226;8.108;2023-06-26T05:12:36;20.50;96.50
4520;DHT22;2272;49.226;8.108;2023-06-26T05:15:04;20.60;96.50
4520;DHT22;2272;49.226;8.108;2023-06-26T05:17:31;20.70;96.40
4520;DHT22;2272;49.226;8.108;2023-06-26T05:19:57;20.90;96.40
4520;DHT22;2272;49.226;8.108;2023-06-26T05:22:26;21.10;96.30
4520;DHT22;2272;49.226;8.108;2023-06-26T05:24:54;22.10;95.80
4520;DHT22;2272;49.226;8.108;2023-06-26T05:27:21;23.00;94.70
4520;DHT22;2272;49.226;8.108;2023-06-26T05:29:49;23.80;93.70
4520;DHT22;2272;49.226;8.108;2023-06-26T05:32:16;24.40;92.90
4520;DHT22;2272;49.226;8.108;2023-06-26T05:37:14;25.20;90.80
4520;DHT22;2272;49.226;8.108;2023-06-26T05:39:47;25.40;90.30
4520;DHT22;2272;49.226;8.108;2023-06-26T05:42:15;25.50;90.10
4520;DHT22;2272;49.226;8.108;2023-06-26T05:44:42;25.70;89.80
4520;DHT22;2272;49.226;8.108;2023-06-26T05:47:09;25.80;89.50
4520;DHT22;2272;49.226;8.108;2023-06-26T05:49:36;26.00;89.20
4520;DHT22;2272;49.226;8.108;2023-06-26T05:52:03;26.20;87.60
4520;DHT22;2272;49.226;8.108;2023-06-26T05:54:30;26.10;86.20
4520;DHT22;2272;49.226;8.108;2023-06-26T05:56:59;25.90;86.00
4520;DHT22;2272;49.226;8.108;2023-06-26T05:59:26;25.80;86.10
4520;DHT22;2272;49.226;8.108;2023-06-26T06:01:53;25.80;85.60
4520;DHT22;2272;49.226;8.108;2023-06-26T06:04:20;25.80;85.30
4520;DHT22;2272;49.226;8.108;2023-06-26T06:06:47;25.90;85.10
4520;DHT22;2272;49.226;8.108;2023-06-26T06:09:14;25.90;85.10
4520;DHT22;2272;49.226;8.108;2023-06-26T06:11:41;25.90;84.80
4520;DHT22;2272;49.226;8.108;2023-06-26T06:14:09;25.80;84.50
4520;DHT22;2272;49.226;8.108;2023-06-26T06:16:36;25.60;84.10
4520;DHT22;2272;49.226;8.108;2023-06-26T06:19:03;25.60;84.00
4520;DHT22;2272;49.226;8.108;2023-06-26T06:21:32;25.50;84.20
4520;DHT22;2272;49.226;8.108;2023-06-26T06:23:59;25.50;83.90
4520;DHT22;2272;49.226;8.108;2023-06-26T06:26:26;25.50;84.30
4520;DHT22;2272;49.226;8.108;2023-06-26T06:28:53;25.50;84.30
4520;DHT22;2272;49.226;8.108;2023-06-26T06:31:21;25.50;84.40
4520;DHT22;2272;49.226;8.108;2023-06-26T06:33:48;25.50;84.40
4520;DHT22;2272;49.226;8.108;2023-06-26T06:36:16;25.50;83.80
4520;DHT22;2272;49.226;8.108;2023-06-26T06:38:43;25.40;84.30
4520;DHT22;2272;49.226;8.108;2023-06-26T06:41:10;25.30;84.70
4520;DHT22;2272;49.226;8.108;2023-06-26T06:43:38;25.20;84.80
4520;DHT22;2272;49.226;8.108;2023-06-26T06:46:04;25.10;85.60
4520;DHT22;2272;49.226;8.108;2023-06-26T06:48:32;25.00;86.60
4520;DHT22;2272;49.226;8.108;2023-06-26T06:50:59;25.00;86.40
4520;DHT22;2272;49.226;8.108;2023-06-26T06:53:26;25.00;86.50
4520;DHT22;2272;49.226;8.108;2023-06-26T06:55:53;25.00;86.80
4520;DHT22;2272;49.226;8.108;2023-06-26T06:58:19;24.90;87.70
4520;DHT22;2272;49.226;8.108;2023-06-26T07:00:46;25.00;87.90
4520;DHT22;2272;49.226;8.108;2023-06-26T07:03:13;25.10;87.50
4520;DHT22;2272;49.226;8.108;2023-06-26T07:05:41;25.20;86.60
4520;DHT22;2272;49.226;8.108;2023-06-26T07:08:08;25.30;86.20
4520;DHT22;2272;49.226;8.108;2023-06-26T07:10:35;25.30;86.60
4520;DHT22;2272;49.226;8.108;2023-06-26T07:13:02;25.30;87.00
4520;DHT22;2272;49.226;8.108;2023-06-26T07:15:28;25.40;87.10
4520;DHT22;2272;49.226;8.108;2023-06-26T07:17:55;25.50;86.60
4520;DHT22;2272;49.226;8.108;2023-06-26T07:20:22;25.70;86.70
4520;DHT22;2272;49.226;8.108;2023-06-26T07:22:50;25.80;87.00
4520;DHT22;2272;49.226;8.108;2023-06-26T07:25:17;26.00;87.10
4520;DHT22;2272;49.226;8.108;2023-06-26T07:27:44;26.20;86.50
4520;DHT22;2272;49.226;8.108;2023-06-26T07:30:11;26.30;85.90
4520;DHT22;2272;49.226;8.108;2023-06-26T07:32:39;26.40;85.50
4520;DHT22;2272;49.226;8.108;2023-06-26T07:35:07;26.60;85.20
4520;DHT22;2272;49.226;8.108;2023-06-26T07:37:34;26.80;84.70
4520;DHT22;2272;49.226;8.108;2023-06-26T07:40:03;27.10;84.30
4520;DHT22;2272;49.226;8.108;2023-06-26T07:42:30;27.50;83.40
4520;DHT22;2272;49.226;8.108;2023-06-26T07:44:56;27.70;82.30
4520;DHT22;2272;49.226;8.108;2023-06-26T07:47:23;28.10;82.40
4520;DHT22;2272;49.226;8.108;2023-06-26T07:49:50;28.30;81.60
4520;DHT22;2272;49.226;8.108;2023-06-26T07:52:18;28.40;80.90
4520;DHT22;2272;49.226;8.108;2023-06-26T07:54:44;28.60;81.10
4520;DHT22;2272;49.226;8.108;2023-06-26T07:57:12;28.70;80.10
4520;DHT22;2272;49.226;8.108;2023-06-26T07:59:39;28.70;80.50
4520;DHT22;2272;49.226;8.108;2023-06-26T08:02:06;28.60;81.00
4520;DHT22;2272;49.226;8.108;2023-06-26T08:04:33;28.40;81.30
4520;DHT22;2272;49.226;8.108;2023-06-26T08:07:01;28.30;81.70
4520;DHT22;2272;49.226;8.108;2023-06-26T08:09:29;28.10;82.30
4520;DHT22;2272;49.226;8.108;2023-06-26T08:11:57;28.00;83.10
4520;DHT22;2272;49.226;8.108;2023-06-26T08:14:25;27.80;83.40
4520;DHT22;2272;49.226;8.108;2023-06-26T08:16:52;28.00;83.80
4520;DHT22;2272;49.226;8.108;2023-06-26T08:19:19;28.30;84.00
4520;DHT22;2272;49.226;8.108;2023-06-26T08:21:46;28.60;84.40
4520;DHT22;2272;49.226;8.108;2023-06-26T08:24:13;28.70;83.50
4520;DHT22;2272;49.226;8.108;2023-06-26T08:26:41;28.90;82.60
4520;DHT22;2272;49.226;8.108;2023-06-26T08:29:08;29.00;82.90
4520;DHT22;2272;49.226;8.108;2023-06-26T08:31:37;29.20;81.80
4520;DHT22;2272;49.226;8.108;2023-06-26T08:34:05;29.30;81.20
4520;DHT22;2272;49.226;8.108;2023-06-26T08:36:32;29.50;81.80
4520;DHT22;2272;49.226;8.108;2023-06-26T08:38:59;29.80;81.10
4520;DHT22;2272;49.226;8.108;2023-06-26T08:41:25;29.90;80.80
4520;DHT22;2272;49.226;8.108;2023-06-26T08:43:52;30.20;80.30
4520;DHT22;2272;49.226;8.108;2023-06-26T08:46:19;30.30;80.10
4520;DHT22;2272;49.226;8.108;2023-06-26T08:48:54;30.10;80.60
4520;DHT22;2272;49.226;8.108;2023-06-26T08:51:24;29.70;81.10
4520;DHT22;2272;49.226;8.108;2023-06-26T08:53:56;29.50;81.70
4520;DHT22;2272;49.226;8.108;2023-06-26T08:56:25;29.60;81.00
4520;DHT22;2272;49.226;8.108;2023-06-26T08:58:53;29.50;80.70
4520;DHT22;2272;49.226;8.108;2023-06-26T09:01:20;29.30;80.40
4520;DHT22;2272;49.226;8.108;2023-06-26T09:03:48;29.10;81.90
4520;DHT22;2272;49.226;8.108;2023-06-26T09:06:15;28.90;82.00
4520;DHT22;2272;49.226;8.108;2023-06-26T09:08:43;28.70;82.60
4520;DHT22;2272;49.226;8.108;2023-06-26T09:11:10;28.50;83.40
4520;DHT22;2272;49.226;8.108;2023-06-26T09:13:37;28.20;84.60
4520;DHT22;2272;49.226;8.108;2023-06-26T09:16:06;28.10;84.20
4520;DHT22;2272;49.226;8.108;2023-06-26T09:18:33;28.00;85.60
4520;DHT22;2272;49.226;8.108;2023-06-26T09:21:06;27.90;85.90
4520;DHT22;2272;49.226;8.108;2023-06-26T09:23:33;27.70;86.30
4520;DHT22;2272;49.226;8.108;2023-06-26T09:26:02;27.80;86.50
4520;DHT22;2272;49.226;8.108;2023-06-26T09:28:30;28.10;86.90
4520;DHT22;2272;49.226;8.108;2023-06-26T09:31:00;28.40;85.80
4520;DHT22;2272;49.226;8.108;2023-06-26T09:33:28;28.40;85.20
4520;DHT22;2272;49.226;8.108;2023-06-26T09:35:59;28.20;84.80
4520;DHT22;2272;49.226;8.108;2023-06-26T09:38:27;27.90;85.40
4520;DHT22;2272;49.226;8.108;2023-06-26T09:40:54;27.70;86.80
4520;DHT22;2272;49.226;8.108;2023-06-26T09:43:21;27.60;87.10
4520;DHT22;2272;49.226;8.108;2023-06-26T09:45:48;27.80;86.80
4520;DHT22;2272;49.226;8.108;2023-06-26T09:48:14;28.20;86.70
4520;DHT22;2272;49.226;8.108;2023-06-26T09:50:42;28.70;86.00
4520;DHT22;2272;49.226;8.108;2023-06-26T09:53:10;29.10;84.10
4520;DHT22;2272;49.226;8.108;2023-06-26T09:55:40;29.20;83.40
4520;DHT22;2272;49.226;8.108;2023-06-26T09:58:10;29.40;83.30
4520;DHT22;2272;49.226;8.108;2023-06-26T10:00:40;29.40;83.00
4520;DHT22;2272;49.226;8.108;2023-06-26T10:03:06;29.40;83.40
4520;DHT22;2272;49.226;8.108;2023-06-26T10:05:33;29.40;82.80
4520;DHT22;2272;49.226;8.108;2023-06-26T10:08:01;29.50;82.20
4520;DHT22;2272;49.226;8.108;2023-06-26T10:10:29;29.60;82.00
4520;DHT22;2272;49.226;8.108;2023-06-26T10:13:00;29.50;82.00
4520;DHT22;2272;49.226;8.108;2023-06-26T10:15:29;29.40;82.30
4520;DHT22;2272;49.226;8.108;2023-06-26T10:17:56;29.40;82.10
4520;DHT22;2272;49.226;8.108;2023-06-26T10:20:24;29.40;82.80
4520;DHT22;2272;49.226;8.108;2023-06-26T10:22:53;29.30;81.90
4520;DHT22;2272;49.226;8.108;2023-06-26T10:25:23;29.30;82.10
4520;DHT22;2272;49.226;8.108;2023-06-26T10:27:54;29.30;82.40
4520;DHT22;2272;49.226;8.108;2023-06-26T10:30:28;29.60;81.10
4520;DHT22;2272;49.226;8.108;2023-06-26T10:32:56;29.60;80.00
4520;DHT22;2272;49.226;8.108;2023-06-26T10:35:24;29.50;81.30
4520;DHT22;2272;49.226;8.108;2023-06-26T10:37:51;29.50;79.50
4520;DHT22;2272;49.226;8.108;2023-06-26T10:40:22;29.60;80.90
4520;DHT22;2272;49.226;8.108;2023-06-26T10:42:49;30.00;80.00
4520;DHT22;2272;49.226;8.108;2023-06-26T10:45:18;30.30;78.00
4520;DHT22;2272;49.226;8.108;2023-06-26T10:47:48;30.30;76.60
4520;DHT22;2272;49.226;8.108;2023-06-26T10:50:19;30.20;77.40
4520;DHT22;2272;49.226;8.108;2023-06-26T10:52:50;30.20;76.60
4520;DHT22;2272;49.226;8.108;2023-06-26T10:55:33;30.20;76.20
4520;DHT22;2272;49.226;8.108;2023-06-26T10:58:00;30.00;74.90
4520;DHT22;2272;49.226;8.108;2023-06-26T11:00:28;29.90;76.40
4520;DHT22;2272;49.226;8.108;2023-06-26T11:02:56;29.90;75.60
4520;DHT22;2272;49.226;8.108;2023-06-26T11:05:24;30.00;75.40
4520;DHT22;2272;49.226;8.108;2023-06-26T11:08:04;30.30;75.40
4520;DHT22;2272;49.226;8.108;2023-06-26T11:10:53;30.40;73.90
4520;DHT22;2272;49.226;8.108;2023-06-26T11:13:20;30.50;73.30
4520;DHT22;2272;49.226;8.108;2023-06-26T11:15:49;30.30;70.60
4520;DHT22;2272;49.226;8.108;2023-06-26T11:18:17;30.10;71.20
4520;DHT22;2272;49.226;8.108;2023-06-26T11:20:45;30.00;72.20
4520;DHT22;2272;49.226;8.108;2023-06-26T11:23:12;30.00;70.60
4520;DHT22;2272;49.226;8.108;2023-06-26T11:25:38;29.90;71.70
4520;DHT22;2272;49.226;8.108;2023-06-26T11:28:09;30.00;71.90
4520;DHT22;2272;49.226;8.108;2023-06-26T11:30:36;30.20;70.20
4520;DHT22;2272;49.226;8.108;2023-06-26T11:33:05;30.40;68.70
4520;DHT22;2272;49.226;8.108;2023-06-26T11:35:34;30.40;68.10
4520;DHT22;2272;49.226;8.108;2023-06-26T11:38:02;30.30;68.80
4520;DHT22;2272;49.226;8.108;2023-06-26T11:40:31;30.30;69.40
4520;DHT22;2272;49.226;8.108;2023-06-26T11:42:59;30.30;68.20
4520;DHT22;2272;49.226;8.108;2023-06-26T11:45:28;30.40;69.30
4520;DHT22;2272;49.226;8.108;2023-06-26T11:47:56;30.60;69.00
4520;DHT22;2272;49.226;8.108;2023-06-26T11:50:23;30.70;68.60
4520;DHT22;2272;49.226;8.108;2023-06-26T11:52:54;30.90;69.80
4520;DHT22;2272;49.226;8.108;2023-06-26T11:55:22;31.10;68.80
4520;DHT22;2272;49.226;8.108;2023-06-26T11:57:49;31.20;66.50
4520;DHT22;2272;49.226;8.108;2023-06-26T12:00:16;31.30;66.50
4520;DHT22;2272;49.226;8.108;2023-06-26T12:02:44;31.20;65.60
4520;DHT22;2272;49.226;8.108;2023-06-26T12:05:11;31.20;65.20
4520;DHT22;2272;49.226;8.108;2023-06-26T12:07:39;30.90;63.70
4520;DHT22;2272;49.226;8.108;2023-06-26T12:10:09;30.70;65.70
4520;DHT22;2272;49.226;8.108;2023-06-26T12:12:37;30.50;65.20
4520;DHT22;2272;49.226;8.108;2023-06-26T12:15:06;30.20;66.70
4520;DHT22;2272;49.226;8.108;2023-06-26T12:17:33;30.20;66.40
4520;DHT22;2272;49.226;8.108;2023-06-26T12:20:00;30.60;67.90
4520;DHT22;2272;49.226;8.108;2023-06-26T12:22:34;30.80;66.30
4520;DHT22;2272;49.226;8.108;2023-06-26T12:25:01;30.90;66.90
4520;DHT22;2272;49.226;8.108;2023-06-26T12:27:29;31.20;66.80
4520;DHT22;2272;49.226;8.108;2023-06-26T12:29:56;31.20;64.70
4520;DHT22;2272;49.226;8.108;2023-06-26T12:32:24;31.10;65.40
4520;DHT22;2272;49.226;8.108;2023-06-26T12:34:51;31.20;66.30
4520;DHT22;2272;49.226;8.108;2023-06-26T12:37:18;31.20;65.80
4520;DHT22;2272;49.226;8.108;2023-06-26T12:39:46;31.40;65.90
4520;DHT22;2272;49.226;8.108;2023-06-26T12:42:14;31.40;65.40
4520;DHT22;2272;49.226;8.108;2023-06-26T12:44:42;31.40;65.20
4520;DHT22;2272;49.226;8.108;2023-06-26T12:47:09;31.30;65.10
4520;DHT22;2272;49.226;8.108;2023-06-26T12:49:39;31.10;66.60
4520;DHT22;2272;49.226;8.108;2023-06-26T12:52:08;31.20;66.50
4520;DHT22;2272;49.226;8.108;2023-06-26T12:54:35;31.30;64.80
4520;DHT22;2272;49.226;8.108;2023-06-26T12:57:02;31.20;65.20
4520;DHT22;2272;49.226;8.108;2023-06-26T12:59:29;31.00;65.30
4520;DHT22;2272;49.226;8.108;2023-06-26T13:01:58;30.90;65.40
4520;DHT22;2272;49.226;8.108;2023-06-26T13:04:25;31.00;65.60
4520;DHT22;2272;49.226;8.108;2023-06-26T13:06:52;31.20;64.70
4520;DHT22;2272;49.226;8.108;2023-06-26T13:09:20;31.50;64.20
4520;DHT22;2272;49.226;8.108;2023-06-26T13:11:46;31.80;63.80
4520;DHT22;2272;49.226;8.108;2023-06-26T13:14:13;31.90;63.20
4520;DHT22;2272;49.226;8.108;2023-06-26T13:16:40;32.00;62.60
4520;DHT22;2272;49.226;8.108;2023-06-26T13:19:08;31.90;62.50
4520;DHT22;2272;49.226;8.108;2023-06-26T13:21:35;31.80;59.60
4520;DHT22;2272;49.226;8.108;2023-06-26T13:24:03;31.60;59.50
4520;DHT22;2272;49.226;8.108;2023-06-26T13:26:30;31.50;58.60
4520;DHT22;2272;49.226;8.108;2023-06-26T13:28:57;31.50;58.40
4520;DHT22;2272;49.226;8.108;2023-06-26T13:31:24;31.50;56.70
4520;DHT22;2272;49.226;8.108;2023-06-26T13:33:50;31.40;55.90
4520;DHT22;2272;49.226;8.108;2023-06-26T13:36:19;31.30;57.00
4520;DHT22;2272;49.226;8.108;2023-06-26T13:38:46;31.30;56.20
4520;DHT22;2272;49.226;8.108;2023-06-26T13:41:15;31.10;55.70
4520;DHT22;2272;49.226;8.108;2023-06-26T13:43:41;30.80;54.50
4520;DHT22;2272;49.226;8.108;2023-06-26T13:46:08;30.60;56.70
4520;DHT22;2272;49.226;8.108;2023-06-26T13:48:35;30.60;56.20
4520;DHT22;2272;49.226;8.108;2023-06-26T13:51:01;30.60;55.80
4520;DHT22;2272;49.226;8.108;2023-06-26T13:53:29;30.60;53.70
4520;DHT22;2272;49.226;8.108;2023-06-26T13:55:56;30.40;54.20
4520;DHT22;2272;49.226;8.108;2023-06-26T13:58:23;30.40;54.20
4520;DHT22;2272;49.226;8.108;2023-06-26T14:00:52;30.50;53.30
4520;DHT22;2272;49.226;8.108;2023-06-26T14:03:18;30.50;52.90
4520;DHT22;2272;49.226;8.108;2023-06-26T14:05:45;30.60;54.00
4520;DHT22;2272;49.226;8.108;2023-06-26T14:08:13;30.70;51.80
4520;DHT22;2272;49.226;8.108;2023-06-26T14:10:41;30.70;52.80
4520;DHT22;2272;49.226;8.108;2023-06-26T14:13:08;30.70;52.60
4520;DHT22;2272;49.226;8.108;2023-06-26T14:15:37;30.90;50.40
4520;DHT22;2272;49.226;8.108;2023-06-26T14:18:05;31.10;50.70
4520;DHT22;2272;49.226;8.108;2023-06-26T14:20:33;31.20;48.20
4520;DHT22;2272;49.226;8.108;2023-06-26T14:23:01;31.20;47.50
4520;DHT22;2272;49.226;8.108;2023-06-26T14:25:28;31.10;47.20
4520;DHT22;2272;49.226;8.108;2023-06-26T14:27:58;30.90;46.20
4520;DHT22;2272;49.226;8.108;2023-06-26T14:30:25;30.70;46.50
4520;DHT22;2272;49.226;8.108;2023-06-26T14:32:52;30.60;46.90
4520;DHT22;2272;49.226;8.108;2023-06-26T14:35:19;30.40;46.90
4520;DHT22;2272;49.226;8.108;2023-06-26T14:37:48;30.20;47.20
4520;DHT22;2272;49.226;8.108;2023-06-26T14:40:15;29.90;47.80
4520;DHT22;2272;49.226;8.108;2023-06-26T14:42:41;29.70;48.30
4520;DHT22;2272;49.226;8.108;2023-06-26T14:45:12;29.70;48.40
4520;DHT22;2272;49.226;8.108;2023-06-26T14:47:38;29.80;48.30
4520;DHT22;2272;49.226;8.108;2023-06-26T14:50:07;29.90;48.10
4520;DHT22;2272;49.226;8.108;2023-06-26T14:52:34;29.90;48.50
4520;DHT22;2272;49.226;8.108;2023-06-26T14:55:00;30.10;49.60
4520;DHT22;2272;49.226;8.108;2023-06-26T14:57:27;30.10;49.30
4520;DHT22;2272;49.226;8.108;2023-06-26T14:59:54;30.00;50.00
4520;DHT22;2272;49.226;8.108;2023-06-26T15:02:22;30.10;49.80
4520;DHT22;2272;49.226;8.108;2023-06-26T15:04:48;30.20;50.40
4520;DHT22;2272;49.226;8.108;2023-06-26T15:07:15;30.50;49.50
4520;DHT22;2272;49.226;8.108;2023-06-26T15:09:42;30.70;48.10
4520;DHT22;2272;49.226;8.108;2023-06-26T15:12:08;30.80;48.40
4520;DHT22;2272;49.226;8.108;2023-06-26T15:14:35;31.10;47.80
4520;DHT22;2272;49.226;8.108;2023-06-26T15:17:02;31.20;48.90
4520;DHT22;2272;49.226;8.108;2023-06-26T15:19:30;31.00;48.40
4520;DHT22;2272;49.226;8.108;2023-06-26T15:21:57;30.60;48.70
4520;DHT22;2272;49.226;8.108;2023-06-26T15:24:23;29.90;49.20
4520;DHT22;2272;49.226;8.108;2023-06-26T15:26:50;29.70;49.00
4520;DHT22;2272;49.226;8.108;2023-06-26T15:29:17;29.50;48.60
4520;DHT22;2272;49.226;8.108;2023-06-26T15:31:44;29.50;49.20
4520;DHT22;2272;49.226;8.108;2023-06-26T15:34:10;29.50;49.80
4520;DHT22;2272;49.226;8.108;2023-06-26T15:36:39;29.50;49.70
4520;DHT22;2272;49.226;8.108;2023-06-26T15:39:06;29.60;50.80
4520;DHT22;2272;49.226;8.108;2023-06-26T15:41:33;29.50;50.90
4520;DHT22;2272;49.226;8.108;2023-06-26T15:44:02;29.50;52.10
4520;DHT22;2272;49.226;8.108;2023-06-26T15:46:29;29.40;51.80
4520;DHT22;2272;49.226;8.108;2023-06-26T15:48:55;29.20;52.30
4520;DHT22;2272;49.226;8.108;2023-06-26T15:51:22;29.10;53.00
4520;DHT22;2272;49.226;8.108;2023-06-26T15:53:50;29.10;53.20
4520;DHT22;2272;49.226;8.108;2023-06-26T15:56:17;29.00;53.10
4520;DHT22;2272;49.226;8.108;2023-06-26T15:58:43;29.00;53.00
4520;DHT22;2272;49.226;8.108;2023-06-26T16:01:12;29.00;53.30
4520;DHT22;2272;49.226;8.108;2023-06-26T16:03:39;29.10;52.90
4520;DHT22;2272;49.226;8.108;2023-06-26T16:06:06;28.90;52.50
4520;DHT22;2272;49.226;8.108;2023-06-26T16:08:34;28.80;52.70